Time;durP1;ratioP1;P1;durP2;ratioP2;P2;SDS_P1;SDS_P2;PMS_P1;PMS_P2;Temp;Humidity;BMP_temperature;BMP_pressure;BME280_temperature;BME280_humidity;BME280_pressure;Samples;Min_cycle;Max_cycle;Signal;HPM_P1;HPM_P2
2022/10/15 00:01:06;;;;;;;13.23;10.73;;;13.90;85.10;;;;;;5072476;28;20401;-75
2022/10/15 00:03:34;;;;;;;11.47;10.07;;;13.90;87.00;;;;;;5073056;28;20432;-76
2022/10/15 00:06:04;;;;;;;14.40;10.53;;;13.90;91.90;;;;;;5088604;28;20450;-76
2022/10/15 00:08:29;;;;;;;18.17;13.50;;;13.90;90.90;;;;;;5088879;28;20409;-71
2022/10/15 00:11:05;;;;;;;12.17;9.97;;;13.90;90.90;;;;;;5072303;28;20428;-75
2022/10/15 00:13:32;;;;;;;13.20;10.87;;;14.00;85.60;;;;;;5072956;28;20521;-74
2022/10/15 00:15:58;;;;;;;16.37;11.37;;;13.90;93.80;;;;;;5071888;28;20456;-70
2022/10/15 00:18:23;;;;;;;14.50;10.40;;;13.90;90.60;;;;;;5073448;28;20393;-69
2022/10/15 00:20:49;;;;;;;13.73;9.50;;;13.90;92.60;;;;;;5072139;28;20176;-75
2022/10/15 00:23:14;;;;;;;15.20;10.10;;;13.90;95.10;;;;;;5073440;28;20170;-75
2022/10/15 00:25:41;;;;;;;14.43;10.27;;;13.90;92.90;;;;;;5067399;28;20202;-75
2022/10/15 00:28:07;;;;;;;14.90;9.80;;;13.90;98.70;;;;;;5070633;28;20181;-70
2022/10/15 00:30:33;;;;;;;12.93;10.90;;;13.90;97.40;;;;;;5070452;28;20420;-75
2022/10/15 00:32:58;;;;;;;12.33;9.73;;;14.00;99.90;;;;;;5073399;28;20497;-69
2022/10/15 00:35:24;;;;;;;13.50;10.13;;;14.00;99.90;;;;;;5069429;28;20279;-75
2022/10/15 00:37:50;;;;;;;13.23;10.20;;;14.00;99.90;;;;;;5073336;28;20175;-70
2022/10/15 00:40:16;;;;;;;18.47;10.77;;;14.00;99.90;;;;;;5073028;28;20566;-74
2022/10/15 00:42:41;;;;;;;16.90;11.80;;;14.00;99.90;;;;;;5069132;28;20261;-69
2022/10/15 00:45:15;;;;;;;11.73;9.80;;;14.00;99.90;;;;;;5066504;28;20201;-71
2022/10/15 00:47:50;;;;;;;13.47;11.17;;;14.00;99.90;;;;;;5072648;28;20166;-69
2022/10/15 00:50:19;;;;;;;15.27;11.67;;;14.00;99.90;;;;;;5071635;28;20439;-70
2022/10/15 00:53:00;;;;;;;14.03;10.63;;;14.00;99.90;;;;;;5073162;28;20940;-75
2022/10/15 00:55:52;;;;;;;17.37;11.67;;;14.10;99.90;;;;;;5071940;28;20454;-76
2022/10/15 00:58:26;;;;;;;12.70;10.57;;;14.00;99.90;;;;;;5064325;28;20536;-70
2022/10/15 01:00:52;;;;;;;13.83;10.63;;;14.00;99.90;;;;;;5072996;28;20443;-76
2022/10/15 01:03:18;;;;;;;16.80;11.37;;;14.00;99.90;;;;;;5073009;28;20428;-77
2022/10/15 01:05:48;;;;;;;14.50;10.90;;;14.00;99.90;;;;;;5067364;28;20949;-70
2022/10/15 01:08:13;;;;;;;16.77;10.90;;;14.00;99.90;;;;;;5068516;28;20544;-70
2022/10/15 01:11:08;;;;;;;15.50;10.87;;;13.90;99.90;;;;;;5068314;28;20412;-76
2022/10/15 01:13:48;;;;;;;18.30;12.30;;;13.90;99.90;;;;;;5052785;28;20253;-76
2022/10/15 01:16:22;;;;;;;15.00;11.10;;;13.90;99.90;;;;;;5051964;28;20900;-71
2022/10/15 01:19:20;;;;;;;14.60;11.60;;;13.90;99.90;;;;;;5061304;28;20939;-75
2022/10/15 01:21:53;;;;;;;18.40;12.87;;;14.00;99.90;;;;;;5054965;28;20413;-72
2022/10/15 01:24:46;;;;;;;15.13;11.27;;;14.00;99.90;;;;;;5069964;28;20413;-75
2022/10/15 01:27:31;;;;;;;13.73;12.10;;;13.90;99.90;;;;;;5068591;28;20459;-69
2022/10/15 01:30:36;;;;;;;15.63;11.57;;;13.90;99.90;;;;;;5060783;28;20408;-72
2022/10/15 01:33:38;;;;;;;21.90;11.00;;;13.90;99.90;;;;;;5071872;28;20509;-70
2022/10/15 01:36:25;;;;;;;15.17;11.37;;;13.90;99.90;;;;;;5030367;28;20423;-76
2022/10/15 01:39:22;;;;;;;16.77;12.50;;;14.00;99.90;;;;;;5054629;28;20401;-76
2022/10/15 01:42:02;;;;;;;16.87;11.73;;;13.90;99.90;;;;;;5074218;28;20424;-76
2022/10/15 01:44:39;;;;;;;14.77;11.43;;;13.90;99.90;;;;;;5074668;28;20936;-76
2022/10/15 01:47:16;;;;;;;17.20;11.90;;;14.00;99.90;;;;;;5056506;28;20452;-75
2022/10/15 01:49:44;;;;;;;19.10;12.33;;;14.00;99.90;;;;;;5063814;28;20412;-75
2022/10/15 01:52:18;;;;;;;21.70;13.83;;;13.90;99.90;;;;;;5062954;28;20464;-69
2022/10/15 01:54:46;;;;;;;20.97;12.73;;;14.00;99.90;;;;;;5062389;28;20413;-76
2022/10/15 01:57:13;;;;;;;21.20;13.00;;;14.00;99.90;;;;;;5075841;28;20450;-75
2022/10/15 01:59:41;;;;;;;20.77;12.23;;;14.00;99.90;;;;;;5073369;28;20417;-75
2022/10/15 02:02:07;;;;;;;18.67;12.70;;;14.10;99.90;;;;;;5076082;28;20458;-71
2022/10/15 02:04:33;;;;;;;21.90;14.10;;;14.10;99.90;;;;;;5074900;28;20916;-76
2022/10/15 02:07:02;;;;;;;21.60;12.73;;;14.10;99.90;;;;;;5076062;28;20248;-70
2022/10/15 02:09:41;;;;;;;19.33;13.33;;;14.10;99.90;;;;;;5075820;28;20801;-70
2022/10/15 02:12:36;;;;;;;21.20;13.40;;;14.10;99.90;;;;;;5061891;28;21012;-73
2022/10/15 02:15:09;;;;;;;21.73;14.27;;;14.10;99.90;;;;;;5068449;28;20411;-77
2022/10/15 02:17:44;;;;;;;24.37;15.10;;;14.10;99.90;;;;;;5075561;28;20397;-77
2022/10/15 02:20:27;;;;;;;20.73;13.30;;;14.10;99.90;;;;;;5075579;28;20423;-71
2022/10/15 02:23:01;;;;;;;21.40;12.97;;;14.10;99.90;;;;;;5091336;28;20499;-71
2022/10/15 02:25:27;;;;;;;17.83;13.13;;;14.10;99.90;;;;;;5072267;28;20444;-70
2022/10/15 02:27:56;;;;;;;22.10;13.60;;;14.10;99.90;;;;;;5058429;28;20507;-77
2022/10/15 02:30:23;;;;;;;21.43;13.50;;;14.00;99.90;;;;;;5075542;28;20166;-76
2022/10/15 02:32:52;;;;;;;23.33;14.00;;;14.00;99.90;;;;;;5073524;28;20956;-76
2022/10/15 02:35:20;;;;;;;24.83;16.93;;;14.00;99.90;;;;;;5074711;28;20486;-69
2022/10/15 02:37:49;;;;;;;24.17;15.70;;;14.00;99.90;;;;;;5074157;28;20404;-75
2022/10/15 02:40:16;;;;;;;21.97;13.77;;;14.00;99.90;;;;;;5056930;28;20409;-73
2022/10/15 02:42:41;;;;;;;29.27;15.87;;;13.90;99.90;;;;;;5075492;28;20438;-71
2022/10/15 02:45:08;;;;;;;26.13;17.37;;;13.80;99.90;;;;;;5072860;28;20863;-75
2022/10/15 02:47:33;;;;;;;25.47;17.27;;;13.80;99.90;;;;;;5075532;28;20194;-75
2022/10/15 02:49:59;;;;;;;24.53;16.57;;;13.80;99.90;;;;;;5074805;28;20444;-70
2022/10/15 02:52:25;;;;;;;25.80;16.57;;;13.80;99.90;;;;;;5073834;28;20206;-74
2022/10/15 02:54:50;;;;;;;28.30;16.57;;;13.70;99.90;;;;;;5060587;28;20175;-71
2022/10/15 02:57:16;;;;;;;28.83;16.10;;;13.70;99.90;;;;;;5069495;28;20260;-75
2022/10/15 02:59:41;;;;;;;25.20;16.30;;;13.70;99.90;;;;;;5075150;28;20159;-71
2022/10/15 03:02:07;;;;;;;26.60;17.33;;;13.60;99.90;;;;;;5074786;28;20174;-75
2022/10/15 03:04:33;;;;;;;25.77;14.87;;;13.60;99.90;;;;;;5074175;28;20212;-70
2022/10/15 03:06:59;;;;;;;24.90;15.20;;;13.60;99.90;;;;;;5090275;28;20456;-76
2022/10/15 03:09:24;;;;;;;25.97;15.67;;;13.60;99.90;;;;;;5062235;28;20194;-75
2022/10/15 03:11:50;;;;;;;30.50;17.57;;;13.60;99.90;;;;;;5058724;28;20187;-69
2022/10/15 03:14:16;;;;;;;21.90;15.30;;;13.60;99.90;;;;;;5053875;28;20178;-74
2022/10/15 03:16:42;;;;;;;25.90;15.93;;;13.70;99.90;;;;;;5060431;28;20563;-71
2022/10/15 03:19:07;;;;;;;33.80;18.00;;;13.70;99.90;;;;;;5074633;28;20401;-69
2022/10/15 03:21:33;;;;;;;30.30;16.90;;;13.70;99.90;;;;;;5072166;28;20189;-69
2022/10/15 03:23:59;;;;;;;24.33;16.73;;;13.70;99.90;;;;;;5073582;28;20170;-75
2022/10/15 03:26:25;;;;;;;28.60;18.10;;;13.70;99.90;;;;;;5072660;28;20284;-75
2022/10/15 03:28:50;;;;;;;26.83;15.70;;;13.70;99.90;;;;;;5090040;28;20174;-72
2022/10/15 03:31:16;;;;;;;26.70;17.17;;;13.80;99.90;;;;;;5074056;28;20443;-71
2022/10/15 03:33:42;;;;;;;27.17;16.73;;;13.70;99.90;;;;;;5073678;28;20678;-76
2022/10/15 03:36:08;;;;;;;34.53;19.00;;;13.70;99.90;;;;;;5072861;28;20670;-71
2022/10/15 03:38:33;;;;;;;28.40;17.93;;;13.70;99.90;;;;;;5074224;28;20177;-70
2022/10/15 03:40:59;;;;;;;29.77;17.80;;;13.70;99.90;;;;;;5074033;28;20375;-75
2022/10/15 03:43:24;;;;;;;30.33;17.10;;;13.70;99.90;;;;;;5073735;28;20166;-72
2022/10/15 03:45:51;;;;;;;29.30;17.27;;;13.80;99.90;;;;;;5073275;28;20190;-70
2022/10/15 03:48:17;;;;;;;23.47;16.10;;;13.70;99.90;;;;;;5089952;28;20213;-71
2022/10/15 03:50:44;;;;;;;26.50;16.33;;;13.70;99.90;;;;;;5073182;28;20436;-75
2022/10/15 03:53:10;;;;;;;34.07;19.07;;;13.80;99.90;;;;;;5072377;28;20452;-70
2022/10/15 03:55:36;;;;;;;35.33;19.20;;;13.70;99.90;;;;;;5071862;28;20432;-74
2022/10/15 03:58:01;;;;;;;25.87;16.00;;;13.70;99.90;;;;;;5069064;28;20616;-76
2022/10/15 04:00:28;;;;;;;36.20;17.77;;;13.70;99.90;;;;;;5054111;28;20174;-76
2022/10/15 04:02:53;;;;;;;27.63;16.73;;;13.60;99.90;;;;;;5067912;28;20194;-76
2022/10/15 04:05:19;;;;;;;30.53;17.27;;;13.60;99.90;;;;;;5069881;28;20456;-71
2022/10/15 04:07:45;;;;;;;31.93;17.13;;;13.50;99.90;;;;;;5073874;28;20174;-70
2022/10/15 04:10:10;;;;;;;31.00;17.50;;;13.40;99.90;;;;;;5073563;28;20630;-70
2022/10/15 04:12:36;;;;;;;30.03;18.70;;;13.50;99.90;;;;;;5072250;28;20666;-74
2022/10/15 04:15:03;;;;;;;29.10;16.80;;;13.50;99.90;;;;;;5082162;28;20255;-73
2022/10/15 04:17:28;;;;;;;28.07;16.77;;;13.50;99.90;;;;;;5053542;28;20183;-74
2022/10/15 04:19:54;;;;;;;23.80;15.77;;;13.50;99.90;;;;;;5072315;28;20428;-70
2022/10/15 04:22:20;;;;;;;29.27;16.90;;;13.50;99.90;;;;;;5073299;28;20577;-69
2022/10/15 04:24:45;;;;;;;28.40;18.13;;;13.60;99.90;;;;;;5072243;28;20279;-75
2022/10/15 04:27:14;;;;;;;31.50;16.80;;;13.60;99.90;;;;;;5073344;28;20174;-71
2022/10/15 04:29:39;;;;;;;29.40;18.80;;;13.60;99.90;;;;;;5072427;28;20214;-75
2022/10/15 04:32:05;;;;;;;30.00;17.07;;;13.60;99.90;;;;;;5073421;28;20488;-74
2022/10/15 04:34:30;;;;;;;36.20;18.30;;;13.60;99.90;;;;;;5066628;28;20181;-69
2022/10/15 04:36:56;;;;;;;27.60;17.17;;;13.60;99.90;;;;;;5053641;28;20187;-70
2022/10/15 04:39:22;;;;;;;26.77;16.07;;;13.70;99.90;;;;;;5067447;28;20220;-71
2022/10/15 04:41:47;;;;;;;25.90;16.50;;;13.60;99.90;;;;;;5072175;28;20186;-75
2022/10/15 04:44:13;;;;;;;32.40;18.00;;;13.70;99.90;;;;;;5072296;28;20174;-75
2022/10/15 04:46:39;;;;;;;29.50;16.60;;;13.70;99.90;;;;;;5073422;28;20276;-70
2022/10/15 04:49:05;;;;;;;25.17;16.67;;;13.70;99.90;;;;;;5070661;28;20456;-75
2022/10/15 04:51:30;;;;;;;24.07;14.97;;;13.70;99.90;;;;;;5073240;28;20173;-70
2022/10/15 04:53:56;;;;;;;29.43;16.93;;;13.60;99.90;;;;;;5072124;28;20170;-75
2022/10/15 04:56:22;;;;;;;30.20;16.40;;;13.60;99.90;;;;;;5073265;28;20186;-74
2022/10/15 04:58:50;;;;;;;31.37;16.87;;;13.60;99.90;;;;;;5081158;28;20228;-76
2022/10/15 05:01:18;;;;;;;27.40;16.40;;;13.60;99.90;;;;;;5055459;28;20975;-70
2022/10/15 05:03:46;;;;;;;27.80;16.20;;;13.60;99.90;;;;;;5071717;28;20429;-70
2022/10/15 05:06:22;;;;;;;31.83;17.47;;;13.50;99.90;;;;;;5073163;28;20500;-75
2022/10/15 05:08:49;;;;;;;26.00;15.83;;;13.40;99.90;;;;;;5071313;28;20442;-75
2022/10/15 05:11:20;;;;;;;29.80;17.33;;;13.40;99.90;;;;;;5071648;28;20412;-75
2022/10/15 05:13:46;;;;;;;27.63;16.90;;;13.50;99.90;;;;;;5071795;28;20424;-72
2022/10/15 05:16:20;;;;;;;26.17;16.33;;;13.50;99.90;;;;;;5076834;28;20427;-71
2022/10/15 05:18:48;;;;;;;32.93;18.07;;;13.60;99.90;;;;;;5076207;28;20887;-70
2022/10/15 05:21:16;;;;;;;33.17;17.57;;;13.60;99.90;;;;;;5071141;28;20810;-75
2022/10/15 05:23:43;;;;;;;28.67;16.90;;;13.50;99.90;;;;;;5062594;28;20440;-72
2022/10/15 05:26:15;;;;;;;30.70;18.57;;;13.50;99.90;;;;;;5076747;28;20507;-75
2022/10/15 05:28:41;;;;;;;31.63;16.87;;;13.40;99.90;;;;;;5076736;28;20892;-75
2022/10/15 05:31:12;;;;;;;27.67;15.67;;;13.50;99.90;;;;;;5075305;28;20399;-75
2022/10/15 05:33:38;;;;;;;31.60;17.67;;;13.50;99.90;;;;;;5075478;28;20334;-76
2022/10/15 05:36:17;;;;;;;33.83;17.37;;;13.40;99.90;;;;;;5076335;28;20759;-72
2022/10/15 05:38:44;;;;;;;26.80;16.23;;;13.40;99.90;;;;;;5076420;28;20485;-71
2022/10/15 05:41:09;;;;;;;29.33;17.20;;;13.30;99.90;;;;;;5076575;28;20424;-70
2022/10/15 05:43:35;;;;;;;32.43;17.47;;;13.40;99.90;;;;;;5075287;28;20427;-77
2022/10/15 05:46:01;;;;;;;29.70;16.90;;;13.30;99.90;;;;;;5075774;28;20206;-76
2022/10/15 05:48:27;;;;;;;30.40;16.30;;;13.30;99.90;;;;;;5076582;28;20627;-74
2022/10/15 05:50:52;;;;;;;27.97;15.90;;;13.30;99.90;;;;;;5075678;28;20753;-70
2022/10/15 05:53:18;;;;;;;29.87;15.53;;;13.30;99.90;;;;;;5076355;28;20300;-71
2022/10/15 05:55:43;;;;;;;27.80;16.80;;;13.40;99.90;;;;;;5075356;28;20198;-70
2022/10/15 05:58:09;;;;;;;24.73;16.67;;;13.40;99.90;;;;;;5074851;28;20677;-76
2022/10/15 06:00:35;;;;;;;27.30;15.83;;;13.40;99.90;;;;;;5076139;28;20173;-69
2022/10/15 06:03:01;;;;;;;29.63;15.20;;;13.40;99.90;;;;;;5075828;28;20188;-71
2022/10/15 06:05:27;;;;;;;26.07;16.60;;;13.40;99.90;;;;;;5075152;28;20413;-70
2022/10/15 06:07:52;;;;;;;26.97;16.00;;;13.30;99.90;;;;;;5076062;28;20178;-74
2022/10/15 06:10:18;;;;;;;28.60;15.93;;;13.30;99.90;;;;;;5075572;28;20239;-74
2022/10/15 06:12:49;;;;;;;24.43;14.23;;;13.30;99.90;;;;;;5063515;28;20702;-74
2022/10/15 06:15:15;;;;;;;32.23;16.40;;;13.30;99.90;;;;;;5071807;28;20422;-69
2022/10/15 06:17:41;;;;;;;29.27;14.87;;;13.20;99.90;;;;;;5075888;28;20393;-70
2022/10/15 06:20:07;;;;;;;30.40;17.00;;;13.30;99.90;;;;;;5074310;28;20496;-74
2022/10/15 06:22:33;;;;;;;29.53;17.83;;;13.30;99.90;;;;;;5075697;28;20209;-70
2022/10/15 06:24:58;;;;;;;29.00;15.90;;;13.30;99.90;;;;;;5073265;28;20470;-74
2022/10/15 06:27:24;;;;;;;32.10;16.80;;;13.30;99.90;;;;;;5074227;28;21003;-69
2022/10/15 06:29:50;;;;;;;34.90;19.90;;;13.20;99.90;;;;;;5074819;28;20166;-68
2022/10/15 06:32:16;;;;;;;42.63;19.73;;;13.20;99.90;;;;;;5075374;28;20186;-69
2022/10/15 06:34:43;;;;;;;43.60;18.70;;;13.20;99.90;;;;;;5069693;28;20395;-69
2022/10/15 06:37:09;;;;;;;31.87;18.30;;;13.20;99.90;;;;;;5075331;28;20425;-74
2022/10/15 06:39:34;;;;;;;31.00;17.10;;;13.20;99.90;;;;;;5075162;28;20769;-69
2022/10/15 06:42:00;;;;;;;33.73;17.40;;;13.20;99.90;;;;;;5075614;28;20245;-74
2022/10/15 06:44:25;;;;;;;30.43;16.57;;;13.20;99.90;;;;;;5066791;28;20190;-70
2022/10/15 06:46:51;;;;;;;34.07;17.23;;;13.10;99.90;;;;;;5075868;28;20248;-71
2022/10/15 06:49:17;;;;;;;31.27;16.30;;;13.10;99.90;;;;;;5073366;28;20166;-71
2022/10/15 06:51:42;;;;;;;36.03;16.40;;;13.10;99.90;;;;;;5074912;28;20218;-71
2022/10/15 06:54:08;;;;;;;29.27;15.33;;;13.10;99.90;;;;;;5069836;28;20178;-74
2022/10/15 06:56:34;;;;;;;29.10;14.80;;;13.10;99.90;;;;;;5064497;28;20198;-68
2022/10/15 06:58:59;;;;;;;24.30;14.57;;;13.00;99.90;;;;;;5064913;28;20170;-69
2022/10/15 07:01:25;;;;;;;30.73;15.47;;;13.10;99.90;;;;;;5074017;28;20411;-70
2022/10/15 07:03:51;;;;;;;29.30;14.00;;;13.10;99.90;;;;;;5073576;28;20181;-70
2022/10/15 07:06:17;;;;;;;28.27;15.80;;;13.10;99.90;;;;;;5074962;28;20696;-70
2022/10/15 07:08:43;;;;;;;32.23;15.20;;;13.10;99.90;;;;;;5074211;28;20543;-75
2022/10/15 07:11:09;;;;;;;32.60;16.27;;;13.00;99.90;;;;;;5070272;28;20494;-74
2022/10/15 07:13:36;;;;;;;31.73;15.43;;;13.10;99.90;;;;;;5085722;28;20980;-76
2022/10/15 07:16:05;;;;;;;30.60;16.63;;;13.10;99.90;;;;;;5074411;28;20412;-69
2022/10/15 07:18:32;;;;;;;32.87;15.50;;;13.20;99.90;;;;;;5074436;28;20417;-70
2022/10/15 07:20:58;;;;;;;36.60;17.30;;;13.20;99.90;;;;;;5073430;28;20392;-70
2022/10/15 07:23:24;;;;;;;43.30;17.33;;;13.20;99.90;;;;;;5068010;28;20426;-74
2022/10/15 07:25:49;;;;;;;36.70;17.60;;;13.20;99.90;;;;;;5073352;28;20420;-69
2022/10/15 07:28:15;;;;;;;43.93;16.73;;;13.20;99.90;;;;;;5074320;28;20198;-70
2022/10/15 07:30:40;;;;;;;34.73;18.67;;;13.30;99.90;;;;;;5074328;28;20253;-71
2022/10/15 07:33:06;;;;;;;42.43;20.83;;;13.30;99.90;;;;;;5074128;28;20201;-70
2022/10/15 07:35:32;;;;;;;43.63;17.80;;;13.20;99.90;;;;;;5073394;28;20189;-74
2022/10/15 07:38:01;;;;;;;34.30;16.37;;;13.10;99.90;;;;;;5073180;28;20194;-74
2022/10/15 07:40:27;;;;;;;44.90;17.90;;;13.20;99.90;;;;;;5074293;28;20404;-70
2022/10/15 07:42:54;;;;;;;50.90;18.83;;;13.10;99.90;;;;;;5074329;28;20475;-71
2022/10/15 07:45:19;;;;;;;39.40;18.40;;;13.20;99.90;;;;;;5072798;28;20186;-74
2022/10/15 07:47:45;;;;;;;39.23;17.13;;;13.20;99.90;;;;;;5074491;28;20465;-70
2022/10/15 07:50:11;;;;;;;39.60;18.90;;;13.20;99.90;;;;;;5063580;28;20700;-74
2022/10/15 07:52:36;;;;;;;33.83;17.80;;;13.30;99.90;;;;;;5054133;28;20716;-70
2022/10/15 07:55:02;;;;;;;35.00;17.43;;;13.30;99.90;;;;;;5053052;28;20174;-71
2022/10/15 07:57:28;;;;;;;36.70;18.87;;;13.30;99.90;;;;;;5054226;28;20174;-74
2022/10/15 07:59:53;;;;;;;36.87;17.63;;;13.30;99.90;;;;;;5052756;28;20166;-75
2022/10/15 08:02:20;;;;;;;41.00;18.70;;;13.20;99.90;;;;;;5053549;28;20183;-70
2022/10/15 08:04:45;;;;;;;40.50;19.80;;;13.20;99.90;;;;;;5060320;28;20185;-70
2022/10/15 08:07:11;;;;;;;46.43;21.30;;;13.30;99.90;;;;;;5073779;28;20405;-71
2022/10/15 08:09:37;;;;;;;49.80;20.00;;;13.30;99.90;;;;;;5072515;28;20193;-70
2022/10/15 08:12:03;;;;;;;43.23;19.27;;;13.30;99.90;;;;;;5073784;28;20193;-73
2022/10/15 08:14:29;;;;;;;46.23;19.33;;;13.30;99.90;;;;;;5071579;28;20559;-73
2022/10/15 08:16:55;;;;;;;50.63;19.40;;;13.30;99.90;;;;;;5073494;28;20478;-72
2022/10/15 08:19:20;;;;;;;45.50;19.47;;;13.30;99.90;;;;;;5073297;28;20169;-70
2022/10/15 08:21:46;;;;;;;35.17;17.37;;;13.30;99.90;;;;;;5072587;28;20263;-70
2022/10/15 08:24:12;;;;;;;52.30;21.03;;;13.30;99.90;;;;;;5072780;28;20174;-74
2022/10/15 08:26:37;;;;;;;37.97;18.37;;;13.40;99.90;;;;;;5073499;28;20186;-74
2022/10/15 08:29:04;;;;;;;47.03;20.13;;;13.40;99.90;;;;;;5072457;28;20651;-73
2022/10/15 08:31:30;;;;;;;43.73;20.47;;;13.30;99.90;;;;;;5073494;28;20178;-69
2022/10/15 08:33:59;;;;;;;37.63;18.33;;;13.40;99.90;;;;;;5071388;28;20395;-69
2022/10/15 08:36:25;;;;;;;37.87;17.30;;;13.40;99.90;;;;;;5072072;28;20428;-70
2022/10/15 08:38:50;;;;;;;33.47;15.20;;;13.50;99.90;;;;;;5072842;28;20920;-74
2022/10/15 08:41:26;;;;;;;42.57;16.50;;;13.50;99.90;;;;;;5073305;28;20253;-70
2022/10/15 08:43:52;;;;;;;39.60;18.60;;;13.50;99.90;;;;;;5067935;28;20227;-70
2022/10/15 08:46:31;;;;;;;48.30;19.03;;;13.40;99.90;;;;;;5053429;28;20421;-74
2022/10/15 08:48:59;;;;;;;44.03;18.73;;;13.40;99.90;;;;;;5052455;28;20559;-74
2022/10/15 08:51:38;;;;;;;38.47;15.47;;;13.50;99.90;;;;;;5053316;28;20412;-73
2022/10/15 08:54:09;;;;;;;42.50;16.10;;;13.50;99.90;;;;;;5051574;28;20804;-70
2022/10/15 08:56:42;;;;;;;48.03;18.60;;;13.40;99.90;;;;;;5069492;28;20493;-70
2022/10/15 08:59:34;;;;;;;39.27;16.80;;;13.40;99.90;;;;;;5073285;28;20401;-70
2022/10/15 09:02:24;;;;;;;44.60;18.77;;;13.40;99.90;;;;;;5061017;28;20470;-73
2022/10/15 09:05:11;;;;;;;41.67;15.63;;;13.30;99.90;;;;;;5047488;28;20528;-74
2022/10/15 09:07:51;;;;;;;41.43;16.50;;;13.40;99.90;;;;;;5052964;28;20452;-75
2022/10/15 09:10:40;;;;;;;44.00;16.97;;;13.40;99.90;;;;;;5052806;28;20429;-68
2022/10/15 09:13:35;;;;;;;44.73;18.77;;;13.50;99.90;;;;;;5051759;28;20538;-74
2022/10/15 09:16:15;;;;;;;43.03;17.00;;;13.40;99.90;;;;;;5051608;28;20493;-70
2022/10/15 09:18:51;;;;;;;39.27;15.20;;;13.50;99.90;;;;;;5053012;28;20380;-71
2022/10/15 09:21:20;;;;;;;38.80;18.47;;;13.50;99.90;;;;;;5068415;28;20777;-72
2022/10/15 09:23:46;;;;;;;39.57;17.03;;;13.50;99.90;;;;;;5052005;28;20405;-73
2022/10/15 09:26:11;;;;;;;53.40;21.27;;;13.50;99.90;;;;;;5052864;28;20918;-70
2022/10/15 09:28:55;;;;;;;50.23;18.80;;;13.50;99.90;;;;;;5052487;28;20198;-74
2022/10/15 09:31:25;;;;;;;36.00;16.33;;;13.60;99.90;;;;;;5071403;28;20559;-71
2022/10/15 09:34:17;;;;;;;43.43;18.30;;;13.70;99.90;;;;;;5070551;28;20433;-73
2022/10/15 09:37:00;;;;;;;63.80;18.90;;;13.70;99.90;;;;;;5034330;28;20415;-73
2022/10/15 09:40:07;;;;;;;49.30;19.50;;;13.80;99.90;;;;;;5072565;28;20423;-73
2022/10/15 09:42:37;;;;;;;50.83;19.17;;;13.90;99.90;;;;;;5011100;28;20501;-73
2022/10/15 09:45:08;;;;;;;48.80;21.03;;;14.00;99.90;;;;;;5061229;28;20522;-73
2022/10/15 09:47:35;;;;;;;50.00;19.40;;;14.10;99.90;;;;;;5072417;28;20404;-73
2022/10/15 09:50:07;;;;;;;51.07;18.70;;;14.10;99.90;;;;;;5061913;28;20913;-73
2022/10/15 09:53:04;;;;;;;44.53;19.70;;;14.00;99.90;;;;;;5052741;28;20448;-70
2022/10/15 09:55:52;;;;;;;47.20;19.50;;;14.10;99.90;;;;;;5051697;28;20436;-73
2022/10/15 09:58:25;;;;;;;42.20;20.03;;;14.10;99.90;;;;;;5052288;28;20531;-70
2022/10/15 10:01:05;;;;;;;50.67;21.67;;;14.20;99.90;;;;;;5054491;28;20397;-70
2022/10/15 10:03:33;;;;;;;60.03;22.93;;;14.20;99.90;;;;;;5055854;28;20395;-69
2022/10/15 10:06:04;;;;;;;47.40;21.90;;;14.10;99.90;;;;;;5055264;28;20424;-73
2022/10/15 10:08:47;;;;;;;46.90;21.70;;;14.10;99.90;;;;;;5055996;28;20416;-73
2022/10/15 10:11:16;;;;;;;49.13;20.70;;;14.10;99.90;;;;;;5056126;28;21000;-73
2022/10/15 10:13:56;;;;;;;48.27;22.60;;;14.20;99.90;;;;;;5054748;28;20456;-71
2022/10/15 10:16:23;;;;;;;51.07;22.27;;;14.30;99.90;;;;;;5055750;28;20421;-70
2022/10/15 10:19:12;;;;;;;49.67;21.17;;;14.50;99.90;;;;;;5055946;28;20428;-71
2022/10/15 10:21:40;;;;;;;43.50;20.73;;;14.50;99.90;;;;;;5071364;28;20877;-70
2022/10/15 10:24:20;;;;;;;48.80;22.30;;;14.60;99.90;;;;;;5054767;28;20444;-73
2022/10/15 10:26:47;;;;;;;43.40;21.50;;;14.80;99.90;;;;;;5068752;28;20501;-74
2022/10/15 10:29:18;;;;;;;49.97;23.77;;;14.90;99.90;;;;;;5075954;28;20396;-75
2022/10/15 10:31:44;;;;;;;44.93;21.70;;;14.90;99.90;;;;;;5075611;28;20397;-75
2022/10/15 10:34:16;;;;;;;39.63;19.60;;;15.10;99.90;;;;;;5073345;28;20410;-75
2022/10/15 10:36:46;;;;;;;43.17;22.13;;;15.30;99.90;;;;;;5068427;28;20487;-76
2022/10/15 10:39:12;;;;;;;49.77;23.47;;;15.50;99.90;;;;;;5055586;28;20394;-78
2022/10/15 10:42:00;;;;;;;44.90;21.93;;;15.70;94.00;;;;;;5055184;28;20890;-75
2022/10/15 10:44:34;;;;;;;36.87;19.13;;;15.90;83.10;;;;;;5054410;28;20869;-74
2022/10/15 10:47:20;;;;;;;45.47;22.03;;;16.00;16.70;;;;;;5054312;28;20466;-72
2022/10/15 10:49:56;;;;;;;48.90;21.83;;;16.00;1.00;;;;;;5055442;28;20406;-73
2022/10/15 10:52:28;;;;;;;42.90;23.80;;;16.00;1.00;;;;;;5054548;28;20798;-72
2022/10/15 10:54:57;;;;;;;41.13;22.17;;;15.90;1.00;;;;;;5054298;28;20397;-70
2022/10/15 10:57:39;;;;;;;41.57;22.07;;;15.90;1.00;;;;;;5054910;28;20550;-73
2022/10/15 11:00:06;;;;;;;42.73;19.70;;;16.00;1.00;;;;;;5055146;28;20386;-70
2022/10/15 11:02:37;;;;;;;40.77;20.73;;;15.90;1.00;;;;;;5053744;28;20912;-73
2022/10/15 11:05:03;;;;;;;37.13;20.00;;;16.10;1.00;;;;;;5053868;28;20930;-73
2022/10/15 11:07:50;;;;;;;43.00;19.33;;;16.30;1.00;;;;;;5055088;28;20417;-70
2022/10/15 11:10:21;;;;;;;37.93;20.03;;;16.40;1.00;;;;;;5053832;28;20460;-72
2022/10/15 11:12:59;;;;;;;32.80;20.20;;;16.40;1.00;;;;;;5053956;28;20494;-70
2022/10/15 11:15:46;;;;;;;33.07;19.17;;;16.40;1.00;;;;;;5053731;28;20413;-73
2022/10/15 11:18:34;;;;;;;29.60;16.93;;;16.30;1.00;;;;;;5054714;28;20394;-73
2022/10/15 11:21:35;;;;;;;29.93;17.00;;;16.40;1.00;;;;;;5071993;28;20815;-74
2022/10/15 11:24:27;;;;;;;30.83;18.13;;;16.40;1.00;;;;;;5039730;28;20413;-73
2022/10/15 11:27:18;;;;;;;35.43;18.37;;;16.40;1.00;;;;;;5069169;28;20428;-74
2022/10/15 11:29:54;;;;;;;29.80;17.30;;;16.40;1.00;;;;;;5073578;28;20828;-73
2022/10/15 11:32:30;;;;;;;33.57;16.73;;;16.40;1.00;;;;;;5072697;28;20847;-74
2022/10/15 11:35:20;;;;;;;30.63;17.90;;;16.30;99.90;;;;;;5061871;28;20508;-71
2022/10/15 11:37:48;;;;;;;25.70;15.57;;;16.40;99.90;;;;;;5053421;28;20409;-73
2022/10/15 11:40:33;;;;;;;23.00;14.63;;;16.40;99.90;;;;;;5053369;28;20410;-73
2022/10/15 11:43:11;;;;;;;26.30;15.57;;;16.50;99.90;;;;;;5054233;28;20409;-71
2022/10/15 11:45:57;;;;;;;32.47;15.33;;;16.50;99.90;;;;;;5052331;28;20504;-71
2022/10/15 11:48:50;;;;;;;23.17;14.83;;;16.50;99.90;;;;;;5064852;28;20900;-72
2022/10/15 11:51:26;;;;;;;30.70;16.40;;;16.60;99.90;;;;;;5074283;28;20408;-73
2022/10/15 11:54:16;;;;;;;26.50;15.10;;;16.70;99.90;;;;;;5073268;28;21049;-73
2022/10/15 11:56:47;;;;;;;26.57;14.73;;;16.80;99.90;;;;;;5074091;28;20419;-71
2022/10/15 11:59:54;;;;;;;28.50;15.37;;;16.80;99.90;;;;;;5074084;28;20743;-72
2022/10/15 12:02:33;;;;;;;23.20;14.40;;;16.70;99.90;;;;;;5037063;28;20452;-71
2022/10/15 12:05:06;;;;;;;27.83;14.37;;;16.80;99.90;;;;;;5052826;28;20413;-72
2022/10/15 12:07:39;;;;;;;23.77;14.63;;;17.00;99.90;;;;;;5053601;28;20492;-71
2022/10/15 12:10:32;;;;;;;29.33;15.27;;;17.00;99.90;;;;;;5069481;28;21027;-72
2022/10/15 12:13:14;;;;;;;23.30;14.17;;;16.90;99.90;;;;;;5053680;28;20452;-74
2022/10/15 12:16:09;;;;;;;22.60;13.90;;;17.10;99.90;;;;;;5052856;28;20460;-71
2022/10/15 12:18:42;;;;;;;27.17;14.37;;;17.10;99.90;;;;;;5053452;28;20817;-73
2022/10/15 12:21:32;;;;;;;20.40;13.00;;;17.20;99.90;;;;;;5069274;28;20415;-71
2022/10/15 12:23:58;;;;;;;21.30;12.03;;;17.20;99.90;;;;;;5052686;28;20408;-72
2022/10/15 12:26:24;;;;;;;21.70;13.73;;;17.20;99.90;;;;;;5053129;28;20456;-73
2022/10/15 12:28:52;;;;;;;19.33;11.67;;;17.10;99.90;;;;;;5053517;28;20422;-73
2022/10/15 12:31:22;;;;;;;17.93;12.27;;;16.90;99.90;;;;;;5068300;28;20174;-74
2022/10/15 12:33:51;;;;;;;15.60;11.80;;;17.00;99.90;;;;;;5052697;28;20834;-72
2022/10/15 12:36:29;;;;;;;14.53;11.73;;;17.20;99.90;;;;;;5053433;28;20467;-71
2022/10/15 12:39:00;;;;;;;19.37;12.23;;;17.30;99.90;;;;;;5053434;28;20390;-73
2022/10/15 12:41:47;;;;;;;24.27;14.33;;;17.30;99.90;;;;;;5053110;28;20397;-75
2022/10/15 12:44:19;;;;;;;15.00;11.80;;;17.30;99.90;;;;;;5068116;28;20440;-70
2022/10/15 12:46:45;;;;;;;17.37;11.47;;;17.30;99.90;;;;;;5053337;28;20445;-72
2022/10/15 12:49:42;;;;;;;18.53;11.27;;;17.40;99.90;;;;;;5053250;28;20419;-71